Time;durP1;ratioP1;P1;durP2;ratioP2;P2;SDS_P1;SDS_P2;PMS_P1;PMS_P2;Temp;Humidity;BMP_temperature;BMP_pressure;BME280_temperature;BME280_humidity;BME280_pressure;Samples;Min_cycle;Max_cycle;Signal;HPM_P1;HPM_P2
2021/09/05 00:00:10;;;;;;;48.80;28.00;;;18.30;76.80;;;;;;4959807;28;20254;-85
2021/09/05 00:02:35;;;;;;;49.33;27.23;;;18.30;76.70;;;;;;4961522;28;20278;-86
2021/09/05 00:05:01;;;;;;;44.10;25.13;;;18.20;76.60;;;;;;4960230;28;20210;-86
2021/09/05 00:07:27;;;;;;;45.57;26.43;;;18.30;76.50;;;;;;4960068;28;20175;-86
2021/09/05 00:09:52;;;;;;;45.97;26.53;;;18.20;76.40;;;;;;4961187;28;20210;-86
2021/09/05 00:12:18;;;;;;;46.00;26.37;;;18.20;76.30;;;;;;4958870;28;20238;-86
2021/09/05 00:14:44;;;;;;;46.23;25.70;;;18.10;76.80;;;;;;4959412;28;20183;-86
2021/09/05 00:17:10;;;;;;;43.27;24.73;;;18.10;76.70;;;;;;4959288;28;20183;-86
2021/09/05 00:19:35;;;;;;;50.53;26.17;;;18.10;76.60;;;;;;4976884;28;20503;-87
2021/09/05 00:22:01;;;;;;;46.93;26.00;;;18.10;76.40;;;;;;4959517;28;20219;-85
2021/09/05 00:24:27;;;;;;;44.40;24.73;;;18.20;76.20;;;;;;4959635;28;20615;-86
2021/09/05 00:26:53;;;;;;;49.33;27.10;;;18.20;76.00;;;;;;4961375;28;20210;-85
2021/09/05 00:29:19;;;;;;;46.70;26.23;;;18.00;76.30;;;;;;4961513;28;20176;-84
2021/09/05 00:31:44;;;;;;;43.43;22.93;;;18.10;76.40;;;;;;4960597;28;20600;-84
2021/09/05 00:34:10;;;;;;;45.23;25.40;;;18.00;76.40;;;;;;4960785;28;20266;-85
2021/09/05 00:36:36;;;;;;;43.10;25.40;;;18.00;76.40;;;;;;4961790;28;20291;-86
2021/09/05 00:39:04;;;;;;;47.58;27.02;;;18.00;76.30;;;;;;4983514;28;20434;-86
2021/09/05 00:41:30;;;;;;;44.22;26.17;;;18.00;76.30;;;;;;4977488;28;20239;-86
2021/09/05 00:44:07;;;;;;;49.38;25.52;;;18.00;76.20;;;;;;4964900;28;20204;-85
2021/09/05 00:46:37;;;;;;;47.58;24.23;;;18.00;76.10;;;;;;4966272;28;20287;-85
2021/09/05 00:49:06;;;;;;;48.60;24.98;;;17.80;76.30;;;;;;4965996;28;20695;-85
2021/09/05 00:51:35;;;;;;;44.33;26.02;;;17.80;76.40;;;;;;4962425;28;20199;-85
2021/09/05 00:54:04;;;;;;;46.55;26.05;;;17.70;76.50;;;;;;4960160;28;20552;-86
2021/09/05 00:56:33;;;;;;;43.05;25.42;;;17.80;76.60;;;;;;4977792;28;20184;-85
2021/09/05 00:59:07;;;;;;;38.47;22.65;;;17.80;76.50;;;;;;4961525;28;20194;-86
2021/09/05 01:01:36;;;;;;;44.53;24.23;;;17.90;76.10;;;;;;4958251;28;20290;-86
2021/09/05 01:04:03;;;;;;;44.83;23.73;;;17.90;76.00;;;;;;4958853;28;20200;-86
2021/09/05 01:06:31;;;;;;;38.08;24.08;;;17.70;76.10;;;;;;4958928;28;20238;-86
2021/09/05 01:08:57;;;;;;;42.30;24.52;;;17.70;76.10;;;;;;4958689;28;20606;-85
2021/09/05 01:11:24;;;;;;;37.70;22.70;;;17.80;76.00;;;;;;4960030;28;20176;-85
2021/09/05 01:13:50;;;;;;;39.55;23.45;;;17.90;75.80;;;;;;4959030;28;20199;-86
2021/09/05 01:16:31;;;;;;;42.13;23.38;;;17.80;75.50;;;;;;4959744;28;20594;-85
2021/09/05 01:19:08;;;;;;;46.38;23.60;;;17.80;75.70;;;;;;4959326;28;20564;-85
2021/09/05 01:21:35;;;;;;;42.10;24.23;;;17.80;75.70;;;;;;4959304;28;20520;-86
2021/09/05 01:24:02;;;;;;;46.55;25.83;;;17.80;75.60;;;;;;4960602;28;20196;-86
2021/09/05 01:26:30;;;;;;;41.50;24.17;;;17.80;75.40;;;;;;4966584;28;20192;-86
2021/09/05 01:28:56;;;;;;;37.95;22.23;;;17.70;75.40;;;;;;4981003;28;20241;-85
2021/09/05 01:31:23;;;;;;;45.95;24.75;;;17.70;75.50;;;;;;4969374;28;20188;-86
2021/09/05 01:33:49;;;;;;;48.97;22.80;;;17.60;75.50;;;;;;4959676;28;20246;-86
2021/09/05 01:36:18;;;;;;;44.83;24.67;;;17.50;75.90;;;;;;4960270;28;20172;-85
2021/09/05 01:38:44;;;;;;;44.75;23.50;;;17.60;76.00;;;;;;4995522;28;20203;-86
2021/09/05 01:41:10;;;;;;;43.97;24.10;;;17.70;75.90;;;;;;4980272;28;20266;-87
2021/09/05 01:43:37;;;;;;;44.53;25.63;;;17.50;75.80;;;;;;4980959;28;20607;-87
2021/09/05 01:46:03;;;;;;;48.50;25.73;;;17.50;76.00;;;;;;4965298;28;20227;-85
2021/09/05 01:48:28;;;;;;;43.17;24.63;;;17.50;76.00;;;;;;4979169;28;20188;-86
2021/09/05 01:50:54;;;;;;;37.50;21.90;;;17.60;76.00;;;;;;4980452;28;20450;-85
2021/09/05 01:53:20;;;;;;;45.73;26.13;;;17.50;75.70;;;;;;4980610;28;20191;-86
2021/09/05 01:55:46;;;;;;;39.37;22.43;;;17.50;75.80;;;;;;4981921;28;20431;-83
2021/09/05 01:58:11;;;;;;;46.77;24.53;;;17.40;75.80;;;;;;4984980;28;20179;-83
2021/09/05 02:00:37;;;;;;;43.93;25.07;;;17.40;76.00;;;;;;4985116;28;20192;-84
2021/09/05 02:03:04;;;;;;;43.13;24.90;;;17.40;76.00;;;;;;4983838;28;20207;-85
2021/09/05 02:05:29;;;;;;;41.00;24.20;;;17.40;76.10;;;;;;4983973;28;20235;-83
2021/09/05 02:07:55;;;;;;;44.67;24.30;;;17.30;76.30;;;;;;4984871;28;20168;-84
2021/09/05 02:10:21;;;;;;;43.17;24.90;;;17.40;76.10;;;;;;4985111;28;20474;-83
2021/09/05 02:12:47;;;;;;;42.87;23.10;;;17.30;76.20;;;;;;5001529;28;20203;-82
2021/09/05 02:15:12;;;;;;;42.37;23.83;;;17.30;76.00;;;;;;4985050;28;20206;-84
2021/09/05 02:17:38;;;;;;;48.20;25.00;;;17.40;75.90;;;;;;4985029;28;20203;-84
2021/09/05 02:20:05;;;;;;;50.93;24.17;;;17.40;75.80;;;;;;4984514;28;20243;-85
2021/09/05 02:22:30;;;;;;;38.00;23.65;;;17.40;75.80;;;;;;4984403;28;20255;-84
2021/09/05 02:24:56;;;;;;;41.47;25.13;;;17.40;75.80;;;;;;4984630;28;20180;-81
2021/09/05 02:27:22;;;;;;;40.60;23.73;;;17.30;75.70;;;;;;4984408;28;20214;-84
2021/09/05 02:29:47;;;;;;;39.37;23.33;;;17.20;76.00;;;;;;4984557;28;20248;-83
2021/09/05 02:32:15;;;;;;;44.30;24.37;;;17.20;76.50;;;;;;4984154;28;20243;-84
2021/09/05 02:34:41;;;;;;;45.53;25.67;;;17.20;76.40;;;;;;4984482;28;20191;-84
2021/09/05 02:37:09;;;;;;;46.27;24.83;;;17.30;76.10;;;;;;4984277;28;20248;-85
2021/09/05 02:39:35;;;;;;;43.10;24.08;;;17.30;75.90;;;;;;4984214;28;20196;-84
2021/09/05 02:42:01;;;;;;;40.65;24.27;;;17.40;75.70;;;;;;4984104;28;20192;-86
2021/09/05 02:44:27;;;;;;;41.50;23.80;;;17.40;75.30;;;;;;4983900;28;20188;-82
2021/09/05 02:46:53;;;;;;;42.40;25.27;;;17.30;75.40;;;;;;4983390;28;20475;-84
2021/09/05 02:49:18;;;;;;;40.80;25.73;;;17.30;75.50;;;;;;4983708;28;20184;-83
2021/09/05 02:51:44;;;;;;;45.33;24.57;;;17.30;76.40;;;;;;4983119;28;20223;-84
2021/09/05 02:54:10;;;;;;;38.93;23.47;;;17.30;75.40;;;;;;4983359;28;20268;-85
2021/09/05 02:56:36;;;;;;;42.38;25.45;;;17.30;75.50;;;;;;4983332;28;20203;-84
2021/09/05 02:59:05;;;;;;;44.23;25.47;;;17.20;75.40;;;;;;4983435;28;20489;-84
2021/09/05 03:01:30;;;;;;;51.95;26.15;;;17.20;75.80;;;;;;4982749;28;20176;-85
2021/09/05 03:03:56;;;;;;;48.07;25.10;;;17.00;76.00;;;;;;4983188;28;20215;-85
2021/09/05 03:06:22;;;;;;;40.93;24.57;;;16.90;76.60;;;;;;4982825;28;20466;-84
2021/09/05 03:08:48;;;;;;;45.30;24.60;;;16.80;76.90;;;;;;4983016;28;20179;-85
2021/09/05 03:11:13;;;;;;;43.30;24.00;;;17.00;77.00;;;;;;4982401;28;20207;-84
2021/09/05 03:13:39;;;;;;;39.43;24.40;;;17.00;76.40;;;;;;5004783;28;20234;-85
2021/09/05 03:16:07;;;;;;;44.23;24.83;;;17.00;76.40;;;;;;4995352;28;20187;-85
2021/09/05 03:18:32;;;;;;;44.92;25.10;;;17.10;76.20;;;;;;4979813;28;20175;-85
2021/09/05 03:20:58;;;;;;;42.00;24.60;;;17.10;75.90;;;;;;4980741;28;20190;-85
2021/09/05 03:23:24;;;;;;;47.60;25.03;;;16.90;76.00;;;;;;4979385;28;20228;-86
2021/09/05 03:25:50;;;;;;;42.30;24.50;;;16.90;76.40;;;;;;4981131;28;20282;-85
2021/09/05 03:28:15;;;;;;;50.00;24.88;;;16.90;76.50;;;;;;4980796;28;20178;-85
2021/09/05 03:30:41;;;;;;;46.77;26.30;;;16.90;76.40;;;;;;4980887;28;20202;-85
2021/09/05 03:33:07;;;;;;;49.47;26.83;;;16.90;76.40;;;;;;4981884;28;20237;-85
2021/09/05 03:35:32;;;;;;;51.53;25.83;;;16.90;76.60;;;;;;4981256;28;20218;-85
2021/09/05 03:37:58;;;;;;;39.93;23.97;;;17.00;76.40;;;;;;4981952;28;20195;-85
2021/09/05 03:40:24;;;;;;;46.80;23.37;;;16.90;76.20;;;;;;4980856;28;20225;-85
2021/09/05 03:42:50;;;;;;;53.77;25.50;;;16.90;76.30;;;;;;4966095;28;20499;-85
2021/09/05 03:45:15;;;;;;;47.20;25.70;;;16.90;76.40;;;;;;4962340;28;20256;-85
2021/09/05 03:47:41;;;;;;;53.37;27.00;;;16.90;76.20;;;;;;4963321;28;20178;-86
2021/09/05 03:50:07;;;;;;;48.13;26.77;;;16.80;76.20;;;;;;4966282;28;20523;-84
2021/09/05 03:52:33;;;;;;;45.58;26.58;;;16.70;76.80;;;;;;4964875;28;20231;-87
2021/09/05 03:55:00;;;;;;;50.80;25.98;;;16.60;76.90;;;;;;4968365;28;20172;-85
2021/09/05 03:57:26;;;;;;;51.22;25.95;;;16.60;76.90;;;;;;4971300;28;20195;-85
2021/09/05 03:59:51;;;;;;;45.93;24.27;;;16.60;76.90;;;;;;4964129;28;20274;-85
2021/09/05 04:02:17;;;;;;;57.03;24.60;;;16.60;77.00;;;;;;4964939;28;20309;-85
2021/09/05 04:04:43;;;;;;;42.83;24.93;;;16.70;77.20;;;;;;4963315;28;20180;-85
2021/09/05 04:07:11;;;;;;;39.57;23.40;;;16.60;76.90;;;;;;4959935;28;20208;-86
2021/09/05 04:12:21;;;;;;;45.22;24.92;;;16.60;76.70;;;;;;4979095;28;20218;-83
2021/09/05 04:14:47;;;;;;;42.50;26.47;;;16.60;76.70;;;;;;4966346;28;20172;-85
2021/09/05 04:17:13;;;;;;;51.53;25.63;;;16.60;77.00;;;;;;4967458;28;20210;-84
2021/09/05 04:19:38;;;;;;;45.90;25.50;;;16.60;76.80;;;;;;4983231;28;20226;-85
2021/09/05 04:22:05;;;;;;;48.03;26.97;;;16.50;77.10;;;;;;4962741;28;20186;-84
2021/09/05 04:24:30;;;;;;;47.85;24.73;;;16.40;77.40;;;;;;4978962;28;20167;-85
2021/09/05 04:26:56;;;;;;;47.90;26.43;;;16.40;77.40;;;;;;4962557;28;20326;-85
2021/09/05 04:29:22;;;;;;;49.73;26.23;;;16.40;77.50;;;;;;4960994;28;20411;-85
2021/09/05 04:31:48;;;;;;;57.50;27.03;;;16.40;77.40;;;;;;4960639;28;20194;-86
2021/09/05 04:34:13;;;;;;;44.50;25.43;;;16.30;77.50;;;;;;4961090;28;20397;-86
2021/09/05 04:36:39;;;;;;;52.00;27.10;;;16.40;77.50;;;;;;4961570;28;20179;-86
2021/09/05 04:39:08;;;;;;;47.10;26.70;;;16.30;77.60;;;;;;4981758;28;20423;-85
2021/09/05 04:41:33;;;;;;;48.35;26.70;;;16.30;77.50;;;;;;4976292;28;20176;-85
2021/09/05 04:43:59;;;;;;;52.47;25.60;;;16.30;77.40;;;;;;4963220;28;20210;-84
2021/09/05 04:46:25;;;;;;;44.53;24.60;;;16.20;77.60;;;;;;4964013;28;20247;-85
2021/09/05 04:48:50;;;;;;;45.17;24.97;;;16.30;77.70;;;;;;4981610;28;20172;-85
2021/09/05 04:51:16;;;;;;;51.63;27.57;;;16.20;77.60;;;;;;4963206;28;20187;-86
2021/09/05 04:53:42;;;;;;;49.00;26.90;;;16.20;77.60;;;;;;4963769;28;20262;-85
2021/09/05 04:56:08;;;;;;;45.37;26.17;;;16.10;77.80;;;;;;4964282;28;20596;-85
2021/09/05 04:58:34;;;;;;;44.43;24.47;;;16.10;77.80;;;;;;4967323;28;20184;-85
2021/09/05 05:00:59;;;;;;;51.90;25.38;;;16.10;77.80;;;;;;4966709;28;20179;-85
2021/09/05 05:03:26;;;;;;;51.67;27.70;;;16.10;77.90;;;;;;4968205;28;20286;-86
2021/09/05 05:05:51;;;;;;;44.05;24.58;;;16.10;77.80;;;;;;4953536;28;20208;-85
2021/09/05 05:08:17;;;;;;;48.60;25.80;;;16.10;78.00;;;;;;4980540;28;20194;-84
2021/09/05 05:10:45;;;;;;;57.90;27.53;;;16.10;77.80;;;;;;4980960;28;20180;-85
2021/09/05 05:13:11;;;;;;;48.30;26.50;;;16.10;77.80;;;;;;4964635;28;20278;-85
2021/09/05 05:15:36;;;;;;;47.57;27.50;;;16.10;77.80;;;;;;4961905;28;20192;-86
2021/09/05 05:18:02;;;;;;;44.63;24.90;;;16.10;77.80;;;;;;4962010;28;20674;-85
2021/09/05 05:20:29;;;;;;;51.87;26.33;;;16.00;77.80;;;;;;4963149;28;20180;-84
2021/09/05 05:22:56;;;;;;;57.70;27.13;;;16.00;77.80;;;;;;4964968;28;20258;-85
2021/09/05 05:25:22;;;;;;;47.85;26.85;;;16.00;77.80;;;;;;4965834;28;20215;-84
2021/09/05 05:27:48;;;;;;;48.67;25.67;;;16.00;77.80;;;;;;4966479;28;20211;-84
2021/09/05 05:30:14;;;;;;;47.83;25.17;;;16.10;77.80;;;;;;4964027;28;20434;-85
2021/09/05 05:32:39;;;;;;;52.30;27.37;;;16.10;77.70;;;;;;4970812;28;20204;-83
2021/09/05 05:35:06;;;;;;;44.17;25.30;;;16.10;77.70;;;;;;4984790;28;20174;-83
2021/09/05 05:37:32;;;;;;;46.97;25.40;;;16.10;77.60;;;;;;5000651;28;20433;-85
2021/09/05 05:39:58;;;;;;;42.30;23.87;;;16.30;77.60;;;;;;4984016;28;20198;-85
2021/09/05 05:42:24;;;;;;;50.87;24.80;;;16.20;78.00;;;;;;4971114;28;20439;-85
2021/09/05 05:44:49;;;;;;;47.10;26.43;;;16.30;77.20;;;;;;4963629;28;20461;-84
2021/09/05 05:47:15;;;;;;;47.73;26.00;;;16.30;77.10;;;;;;4984482;28;20214;-84
2021/09/05 05:49:46;;;;;;;51.53;24.50;;;16.40;77.00;;;;;;4964236;28;20172;-85
2021/09/05 05:52:13;;;;;;;39.97;24.40;;;16.50;76.80;;;;;;4961644;28;20192;-86
2021/09/05 05:54:39;;;;;;;38.10;23.48;;;17.00;75.70;;;;;;4962137;28;20198;-86
2021/09/05 05:57:05;;;;;;;37.60;23.08;;;17.60;74.40;;;;;;4962269;28;20660;-85
2021/09/05 05:59:30;;;;;;;39.13;23.37;;;18.20;71.70;;;;;;4966791;28;20180;-84
2021/09/05 06:01:56;;;;;;;36.87;22.37;;;18.50;69.70;;;;;;4965999;28;20211;-85
2021/09/05 06:04:22;;;;;;;33.00;21.50;;;18.80;68.20;;;;;;4966478;28;20923;-85
2021/09/05 06:06:48;;;;;;;36.17;22.73;;;18.90;67.20;;;;;;4961804;28;20211;-86
2021/09/05 06:09:15;;;;;;;34.93;22.47;;;18.80;67.10;;;;;;4962620;28;20178;-84
2021/09/05 06:11:41;;;;;;;38.85;23.10;;;18.50;67.50;;;;;;4964189;28;20613;-86
2021/09/05 06:14:06;;;;;;;33.07;20.80;;;18.40;67.80;;;;;;4961216;28;20223;-86
2021/09/05 06:16:33;;;;;;;39.17;22.83;;;18.20;68.30;;;;;;4961289;28;20181;-87
2021/09/05 06:18:59;;;;;;;34.20;22.25;;;18.00;68.90;;;;;;4961339;28;20187;-88
2021/09/05 06:21:25;;;;;;;39.80;23.45;;;17.80;69.50;;;;;;4961211;28;20192;-91
2021/09/05 06:23:51;;;;;;;38.20;23.13;;;17.80;70.40;;;;;;4961709;28;20243;-91
2021/09/05 06:26:17;;;;;;;34.00;20.63;;;18.00;70.50;;;;;;4961654;28;20498;-89
2021/09/05 06:28:43;;;;;;;37.67;22.53;;;18.20;69.30;;;;;;4961246;28;20463;-90
2021/09/05 06:31:09;;;;;;;39.53;22.10;;;18.40;68.10;;;;;;4961758;28;20640;-90
2021/09/05 06:33:34;;;;;;;36.10;22.80;;;18.40;68.30;;;;;;4961423;28;20455;-90
2021/09/05 06:36:00;;;;;;;36.57;22.17;;;18.30;68.30;;;;;;4961071;28;20184;-89
2021/09/05 06:38:26;;;;;;;39.03;23.50;;;18.00;68.90;;;;;;4976732;28;20191;-90
2021/09/05 06:40:51;;;;;;;37.17;22.07;;;18.10;69.40;;;;;;4980498;28;20643;-91
2021/09/05 06:43:17;;;;;;;41.57;22.43;;;18.20;69.20;;;;;;4961948;28;20206;-88
2021/09/05 06:45:43;;;;;;;42.10;22.77;;;18.20;68.90;;;;;;4961629;28;20210;-92
2021/09/05 06:48:09;;;;;;;40.90;21.77;;;18.00;69.20;;;;;;4961872;28;20172;-90
2021/09/05 06:50:35;;;;;;;36.23;23.10;;;17.90;69.70;;;;;;4980118;28;20266;-90
2021/09/05 06:53:01;;;;;;;40.70;23.97;;;17.70;70.70;;;;;;4962323;28;20248;-91
2021/09/05 06:55:27;;;;;;;39.13;22.30;;;17.50;71.40;;;;;;4979909;28;20427;-91
2021/09/05 06:57:53;;;;;;;42.28;23.80;;;17.70;72.50;;;;;;4961105;28;20416;-91
2021/09/05 07:00:20;;;;;;;43.87;23.77;;;17.70;71.70;;;;;;4962528;28;20184;-92
2021/09/05 07:02:46;;;;;;;35.20;22.15;;;17.60;71.90;;;;;;4962639;28;20211;-91
2021/09/05 07:05:12;;;;;;;42.17;23.67;;;17.70;72.10;;;;;;4961369;28;20256;-91
2021/09/05 07:07:38;;;;;;;41.00;22.00;;;17.80;71.80;;;;;;4962140;28;20250;-90
2021/09/05 07:10:05;;;;;;;37.03;22.30;;;17.80;71.80;;;;;;4965224;28;20423;-92
2021/09/05 07:12:30;;;;;;;37.60;21.83;;;17.80;71.80;;;;;;4964935;28;20465;-92
2021/09/05 07:14:57;;;;;;;39.60;22.47;;;17.90;71.90;;;;;;4982532;28;20183;-92
2021/09/05 07:17:22;;;;;;;39.70;22.73;;;17.90;71.90;;;;;;4985583;28;20428;-91
2021/09/05 07:19:48;;;;;;;41.00;25.10;;;18.00;71.80;;;;;;4984907;28;20215;-91
2021/09/05 07:22:14;;;;;;;36.90;23.70;;;17.90;71.60;;;;;;4983557;28;20238;-91
2021/09/05 07:24:39;;;;;;;46.80;24.47;;;18.00;71.80;;;;;;4980453;28;20557;-90
2021/09/05 07:27:05;;;;;;;41.27;23.77;;;18.10;71.80;;;;;;4979425;28;20341;-92
2021/09/05 07:29:31;;;;;;;36.30;22.00;;;18.10;71.60;;;;;;4979488;28;20190;-90
2021/09/05 07:31:57;;;;;;;42.70;23.70;;;18.20;71.60;;;;;;4996698;28;20437;-91
2021/09/05 07:34:22;;;;;;;45.63;25.40;;;18.30;71.40;;;;;;4980739;28;20187;-91
2021/09/05 07:36:48;;;;;;;45.57;23.53;;;18.30;71.40;;;;;;4981468;28;20210;-92
2021/09/05 07:39:14;;;;;;;45.50;22.93;;;18.20;71.10;;;;;;4983653;28;20305;-93
2021/09/05 07:41:40;;;;;;;38.80;23.10;;;18.30;71.20;;;;;;4987760;28;20183;-93
2021/09/05 07:44:06;;;;;;;41.30;24.63;;;18.40;71.20;;;;;;4987445;28;20257;-93
2021/09/05 07:46:32;;;;;;;41.83;23.10;;;18.50;71.20;;;;;;4988198;28;20214;-94
2021/09/05 07:48:58;;;;;;;38.33;24.08;;;18.40;71.10;;;;;;4995755;28;20251;-94
2021/09/05 07:51:25;;;;;;;41.17;22.13;;;18.50;71.20;;;;;;4995812;28;20218;-94
2021/09/05 07:53:52;;;;;;;38.30;25.23;;;18.50;71.30;;;;;;4999290;28;20195;-93
2021/09/05 07:56:18;;;;;;;38.97;23.23;;;18.50;71.40;;;;;;4984740;28;20481;-93
2021/09/05 07:58:44;;;;;;;35.07;23.23;;;18.60;71.00;;;;;;4980886;28;20619;-93
2021/09/05 08:01:09;;;;;;;47.47;24.77;;;18.50;71.00;;;;;;4980487;28;20581;-92
2021/09/05 08:03:39;;;;;;;42.43;24.03;;;18.50;71.20;;;;;;4979435;28;20199;-92
2021/09/05 08:06:45;;;;;;;39.80;22.83;;;18.60;71.20;;;;;;4980236;28;20227;-93
2021/09/05 08:09:11;;;;;;;40.33;23.55;;;18.70;71.20;;;;;;4980144;28;20175;-93
2021/09/05 08:11:37;;;;;;;41.23;22.83;;;18.60;70.80;;;;;;4980636;28;20237;-92
2021/09/05 08:14:03;;;;;;;37.37;22.17;;;18.80;71.00;;;;;;4982612;28;20220;-92
2021/09/05 08:16:29;;;;;;;35.07;22.00;;;18.90;70.60;;;;;;4983321;28;20647;-94
2021/09/05 08:18:55;;;;;;;40.73;22.93;;;19.10;70.50;;;;;;4984058;28;20183;-93
2021/09/05 08:21:21;;;;;;;40.33;22.65;;;19.20;70.10;;;;;;5001501;28;20438;-95
2021/09/05 08:23:47;;;;;;;40.53;23.35;;;19.30;69.80;;;;;;4968281;28;20225;-93
2021/09/05 08:26:15;;;;;;;39.33;24.00;;;19.40;69.30;;;;;;4981290;28;20203;-91
2021/09/05 08:28:41;;;;;;;41.28;23.35;;;19.50;69.00;;;;;;4979937;28;20414;-92
2021/09/05 08:31:07;;;;;;;40.80;23.27;;;19.40;69.00;;;;;;4980464;28;20182;-92
2021/09/05 08:33:33;;;;;;;38.25;23.40;;;19.40;69.20;;;;;;4984156;28;20462;-92
2021/09/05 08:35:59;;;;;;;44.00;23.13;;;19.40;69.40;;;;;;4993501;28;20271;-91
2021/09/05 08:38:25;;;;;;;35.10;21.80;;;19.50;69.00;;;;;;4992444;28;20415;-91
2021/09/05 08:40:51;;;;;;;43.43;22.57;;;19.60;68.80;;;;;;4993114;28;20415;-89
2021/09/05 08:43:18;;;;;;;37.60;21.95;;;19.60;68.50;;;;;;4973961;28;20486;-92
2021/09/05 08:45:48;;;;;;;35.38;21.50;;;19.80;68.30;;;;;;4973701;28;20691;-88
2021/09/05 08:48:17;;;;;;;48.85;23.77;;;19.70;68.30;;;;;;4971625;28;20199;-91
2021/09/05 08:50:45;;;;;;;34.30;22.35;;;19.90;68.20;;;;;;4970797;28;20227;-90
2021/09/05 08:53:11;;;;;;;41.47;23.02;;;19.90;67.80;;;;;;4970257;28;20283;-89
2021/09/05 08:55:37;;;;;;;38.27;21.60;;;20.00;67.30;;;;;;4971323;28;20179;-88
2021/09/05 08:58:03;;;;;;;34.72;20.90;;;20.00;67.40;;;;;;4971933;28;20443;-84
2021/09/05 09:00:29;;;;;;;32.22;20.25;;;19.80;67.60;;;;;;4971297;28;20241;-82
2021/09/05 09:02:57;;;;;;;33.33;22.03;;;20.00;67.50;;;;;;4970951;28;20192;-83
2021/09/05 09:05:37;;;;;;;35.75;20.80;;;20.00;67.40;;;;;;4969455;28;20443;-86
2021/09/05 09:08:07;;;;;;;34.92;19.85;;;20.00;67.20;;;;;;4972826;28;20247;-85
2021/09/05 09:10:49;;;;;;;34.00;19.50;;;20.30;67.10;;;;;;4980339;28;20180;-85
2021/09/05 09:13:40;;;;;;;29.77;20.55;;;20.30;66.80;;;;;;4979253;28;20215;-85
2021/09/05 09:16:11;;;;;;;37.55;20.45;;;20.50;66.40;;;;;;4968655;28;20191;-85
2021/09/05 09:18:39;;;;;;;33.38;20.42;;;20.60;66.30;;;;;;4976209;28;20183;-85
2021/09/05 09:21:07;;;;;;;35.03;21.95;;;20.50;65.90;;;;;;4983544;28;20179;-86
2021/09/05 09:23:36;;;;;;;32.58;21.08;;;20.60;65.90;;;;;;4984644;28;20187;-84
2021/09/05 09:26:10;;;;;;;33.72;21.55;;;20.60;65.60;;;;;;4984711;28;20226;-84
2021/09/05 09:28:40;;;;;;;32.15;20.67;;;20.60;65.40;;;;;;5001508;28;20171;-84
2021/09/05 09:31:13;;;;;;;36.08;21.17;;;20.70;65.30;;;;;;5000336;28;20164;-83
2021/09/05 09:33:39;;;;;;;31.35;19.60;;;20.70;65.40;;;;;;4983110;28;20203;-84
2021/09/05 09:36:07;;;;;;;42.03;22.08;;;20.80;65.30;;;;;;4984190;28;20200;-83
2021/09/05 09:38:33;;;;;;;32.42;19.48;;;20.80;64.50;;;;;;4985363;28;20164;-83
2021/09/05 09:41:15;;;;;;;38.92;21.05;;;20.90;64.50;;;;;;4985385;28;20192;-85
2021/09/05 09:43:52;;;;;;;31.60;20.30;;;21.10;64.40;;;;;;4984604;28;20188;-86
2021/09/05 09:46:21;;;;;;;33.87;21.43;;;21.10;63.90;;;;;;4984283;28;20517;-84
2021/09/05 09:48:49;;;;;;;33.13;19.50;;;21.20;64.00;;;;;;4979347;28;20890;-84
2021/09/05 09:51:15;;;;;;;29.07;19.53;;;21.30;64.10;;;;;;4971336;28;20180;-85
2021/09/05 09:53:43;;;;;;;33.00;19.80;;;21.30;63.60;;;;;;4989111;28;20442;-85
2021/09/05 09:56:11;;;;;;;31.73;19.47;;;21.40;63.20;;;;;;4971791;28;20411;-85
2021/09/05 09:58:37;;;;;;;34.53;18.90;;;21.50;62.90;;;;;;4965860;28;20935;-85
2021/09/05 10:01:04;;;;;;;27.67;19.00;;;21.40;62.80;;;;;;4967597;28;20407;-85
2021/09/05 10:03:31;;;;;;;29.53;18.93;;;21.40;62.70;;;;;;4964310;28;20450;-86
2021/09/05 10:06:02;;;;;;;29.17;19.70;;;21.50;62.40;;;;;;4964048;28;20529;-85
2021/09/05 10:08:30;;;;;;;25.40;15.93;;;21.50;61.70;;;;;;4966441;28;20823;-84
2021/09/05 10:10:58;;;;;;;29.67;17.90;;;21.60;62.20;;;;;;4964822;28;20426;-85
2021/09/05 10:13:32;;;;;;;34.90;20.60;;;21.80;62.20;;;;;;4967585;28;20445;-85
2021/09/05 10:16:02;;;;;;;32.80;19.73;;;21.80;62.20;;;;;;4984071;28;20451;-85
2021/09/05 10:18:30;;;;;;;34.93;21.20;;;21.90;62.10;;;;;;4987472;28;20469;-86
2021/09/05 10:20:57;;;;;;;32.83;19.83;;;22.00;62.30;;;;;;4989946;28;20425;-85
2021/09/05 10:23:45;;;;;;;29.07;17.83;;;22.00;61.00;;;;;;4989336;28;20446;-85
2021/09/05 10:26:15;;;;;;;31.43;18.17;;;21.90;61.20;;;;;;4984989;28;20477;-85
2021/09/05 10:28:46;;;;;;;28.37;18.20;;;22.00;61.60;;;;;;4984710;28;20477;-85
2021/09/05 10:31:25;;;;;;;32.97;20.23;;;22.20;60.60;;;;;;4984660;28;20474;-86
2021/09/05 10:33:51;;;;;;;27.63;17.90;;;22.30;60.00;;;;;;4979844;28;20481;-87
2021/09/05 10:36:25;;;;;;;29.20;20.60;;;22.40;59.70;;;;;;4973827;28;20410;-85
2021/09/05 10:38:53;;;;;;;34.07;18.37;;;22.40;59.80;;;;;;4973978;28;20217;-84
2021/09/05 10:41:19;;;;;;;31.23;20.27;;;22.60;59.60;;;;;;4979643;28;20474;-87
2021/09/05 10:43:48;;;;;;;34.43;20.60;;;22.50;59.00;;;;;;4973408;28;20961;-87
2021/09/05 10:46:27;;;;;;;36.70;19.87;;;22.50;58.90;;;;;;4980421;28;20238;-90
2021/09/05 10:49:01;;;;;;;31.90;18.17;;;22.50;59.50;;;;;;4984925;28;20786;-88
2021/09/05 10:51:33;;;;;;;31.70;18.57;;;22.60;59.70;;;;;;4995525;28;20407;-87
2021/09/05 10:54:01;;;;;;;32.33;18.03;;;22.80;59.10;;;;;;4968629;28;20439;-86
2021/09/05 10:56:27;;;;;;;29.20;17.50;;;22.70;58.10;;;;;;4971183;28;20422;-85
2021/09/05 10:59:08;;;;;;;26.27;16.30;;;23.00;57.80;;;;;;4985628;28;20415;-85
2021/09/05 11:01:37;;;;;;;28.90;17.40;;;23.00;57.30;;;;;;4984955;28;20391;-85
2021/09/05 11:04:12;;;;;;;29.20;16.63;;;22.90;57.20;;;;;;4967984;28;20942;-85
2021/09/05 11:06:44;;;;;;;27.27;16.50;;;22.90;56.90;;;;;;4966118;28;20497;-84
2021/09/05 11:09:24;;;;;;;32.43;18.03;;;23.20;55.90;;;;;;4965312;28;20465;-83
2021/09/05 11:11:59;;;;;;;24.47;16.13;;;23.00;55.30;;;;;;4965812;28;20500;-85
2021/09/05 11:17:08;;;;;;;23.13;16.40;;;23.00;55.70;;;;;;4984369;28;20946;-84
2021/09/05 11:19:42;;;;;;;20.50;14.40;;;23.30;55.50;;;;;;4966297;28;20435;-85
2021/09/05 11:22:10;;;;;;;23.47;13.87;;;23.40;54.60;;;;;;4964275;28;20834;-86
2021/09/05 11:24:36;;;;;;;26.97;16.43;;;23.50;54.40;;;;;;4961566;28;20427;-86
2021/09/05 11:27:04;;;;;;;25.50;15.70;;;23.40;53.60;;;;;;4963034;28;20467;-86
2021/09/05 11:29:30;;;;;;;27.70;17.40;;;23.50;54.60;;;;;;4962629;28;20775;-86
2021/09/05 11:32:05;;;;;;;26.30;17.50;;;23.60;54.80;;;;;;4979476;28;20778;-85
2021/09/05 11:34:32;;;;;;;25.63;15.53;;;23.70;54.70;;;;;;4964324;28;20455;-85
2021/09/05 11:36:59;;;;;;;21.70;15.67;;;23.70;54.00;;;;;;4970324;28;20490;-85
2021/09/05 11:39:25;;;;;;;23.67;15.47;;;23.70;53.50;;;;;;4997012;28;20432;-85
2021/09/05 11:41:56;;;;;;;22.23;15.23;;;23.80;53.30;;;;;;4989383;28;20416;-85
2021/09/05 11:44:28;;;;;;;26.00;16.10;;;23.80;52.50;;;;;;4986162;28;20427;-85
2021/09/05 11:47:07;;;;;;;22.80;14.87;;;23.70;52.10;;;;;;4983510;28;20466;-85
2021/09/05 11:49:55;;;;;;;18.07;12.97;;;23.80;51.70;;;;;;4984374;28;20418;-85
2021/09/05 11:52:30;;;;;;;18.70;12.53;;;24.00;49.80;;;;;;4983667;28;20554;-85
2021/09/05 11:55:02;;;;;;;17.17;11.83;;;24.00;49.00;;;;;;4984251;28;20414;-85
2021/09/05 11:57:29;;;;;;;15.53;11.50;;;24.10;48.00;;;;;;4985576;28;20426;-85
2021/09/05 11:59:57;;;;;;;19.53;12.67;;;24.20;48.80;;;;;;4988021;28;20735;-84
2021/09/05 12:02:37;;;;;;;20.97;13.60;;;24.20;48.50;;;;;;4993924;28;20832;-86
2021/09/05 12:05:07;;;;;;;18.07;12.37;;;24.20;48.80;;;;;;4994836;28;20433;-85
2021/09/05 12:07:38;;;;;;;24.60;15.40;;;24.00;49.40;;;;;;4995468;28;20501;-85
2021/09/05 12:10:07;;;;;;;18.30;12.40;;;23.90;50.20;;;;;;4994516;28;20418;-85
2021/09/05 12:12:34;;;;;;;21.87;13.60;;;24.10;50.30;;;;;;4991330;28;20434;-84
2021/09/05 12:15:15;;;;;;;25.53;15.80;;;24.20;49.80;;;;;;4993574;28;20458;-85
2021/09/05 12:17:49;;;;;;;21.13;13.40;;;24.50;49.50;;;;;;4981374;28;20449;-85
2021/09/05 12:20:17;;;;;;;25.37;14.53;;;24.50;48.80;;;;;;5013634;28;20398;-85
2021/09/05 12:22:44;;;;;;;26.70;13.87;;;24.50;49.40;;;;;;4995704;28;20459;-85
2021/09/05 12:25:21;;;;;;;21.13;13.20;;;24.40;49.70;;;;;;4996318;28;20502;-84
2021/09/05 12:28:04;;;;;;;24.30;14.97;;;24.60;49.00;;;;;;4998723;28;20480;-85
2021/09/05 12:30:36;;;;;;;19.27;12.87;;;24.50;48.40;;;;;;4998021;28;20421;-85
2021/09/05 12:33:10;;;;;;;17.90;12.60;;;24.70;47.80;;;;;;4995929;28;20481;-85
2021/09/05 12:35:37;;;;;;;20.90;13.93;;;24.80;47.20;;;;;;4994881;28;20485;-85